»·PEaware :: WAT202 KSBA-KPSP

WAT202 :: KSBA-KPSP

FLIGHT INFORMATION

Flight Status: Arrived
Operator:
Walker Air Transport
More flights by this operator :: More flights under this callsign
Pilot: Nick L. (7253)
Aircraft: BEECH AIRCRAFT SUPER KING AIR 350
(B350)
More flights by this aircraft type
Origin: KSBA Santa Barbara Mun
United States
Destination: KPSP Palm Springs Intl
United States
More flights between these airports :: More routes between these airports
Route: KWANG5 HENER PMD V386 PSP
File this flight plan on PilotEdge
Remarks:
Altitude:
(Current/Filed)
17,000ft
Speed:
(Current/Filed)
250kts
Departed: 07-Mar-21 04:49 PM
Arrived: 07-Mar-21 05:52 PM
Distance/Time
Traveled:
169nm/1:03
Distance/Time
To Go:
Arrived

Flight Plot

Page will automatically refresh every two minutes.

Flight plan parsing failed; only flown route is shown


Map Options




Map Legend


Flown Route
Filed Route
Departure Airport
Arrival Airport
Navaid (VOR, NDB)
Fix

Horizontal Profiles

Position Reports

Time Latitude Longitude Heading Altitude Ground
Speed
07-Mar-21 16:24 34.432723 -119.835615 71 15ft 0kts
07-Mar-21 16:25 34.432723 -119.835615 71 15ft 0kts
07-Mar-21 16:27 34.432723 -119.835615 71 15ft 0kts
07-Mar-21 16:28 34.432723 -119.835615 71 15ft 0kts
07-Mar-21 16:29 34.432723 -119.835615 71 15ft 0kts
07-Mar-21 16:30 34.432723 -119.835615 71 15ft 0kts
07-Mar-21 16:31 34.432723 -119.835615 71 15ft 0kts
07-Mar-21 16:32 34.432723 -119.835615 71 15ft 0kts
07-Mar-21 16:33 34.432723 -119.835615 71 15ft 0kts
07-Mar-21 16:34 34.432723 -119.835615 71 15ft 0kts
07-Mar-21 16:35 34.432723 -119.835615 71 15ft 0kts
07-Mar-21 16:36 34.432723 -119.835615 71 15ft 0kts
07-Mar-21 16:37 34.432723 -119.835615 71 15ft 0kts
07-Mar-21 16:38 34.432723 -119.835615 71 15ft 0kts
07-Mar-21 16:39 34.432723 -119.835615 71 15ft 0kts
07-Mar-21 16:40 34.432723 -119.835615 71 15ft 0kts
07-Mar-21 16:41 34.432880 -119.835492 237 15ft 0kts
07-Mar-21 16:42 34.432420 -119.835802 151 15ft 0kts
07-Mar-21 16:43 34.432324 -119.835795 180 15ft 1kts
07-Mar-21 16:44 34.431443 -119.837233 251 15ft 13kts
07-Mar-21 16:45 34.430694 -119.839706 248 15ft 0kts
07-Mar-21 16:46 34.430693 -119.839709 248 15ft 0kts
07-Mar-21 16:46 34.430693 -119.839709 248 15ft 0kts
07-Mar-21 16:48 34.430693 -119.839709 248 15ft 0kts
07-Mar-21 16:49 34.429264 -119.839877 165 15ft 50kts
07-Mar-21 16:49 34.402350 -119.831276 169 1024ft 141kts
07-Mar-21 16:50 34.358918 -119.819472 169 2639ft 165kts
07-Mar-21 16:52 34.308995 -119.789220 152 4565ft 174kts
07-Mar-21 16:53 34.266197 -119.761225 152 6184ft 176kts
07-Mar-21 16:53 34.229923 -119.737362 152 7400ft 180kts
07-Mar-21 16:54 34.222583 -119.684438 72 8944ft 192kts
07-Mar-21 16:56 34.242299 -119.610319 74 10714ft 204kts
07-Mar-21 16:56 34.256688 -119.554661 74 11994ft 212kts
07-Mar-21 16:57 34.274559 -119.485476 74 13501ft 218kts
07-Mar-21 16:58 34.292763 -119.414736 74 14868ft 223kts
07-Mar-21 16:59 34.311202 -119.342943 75 16100ft 228kts
07-Mar-21 17:00 34.330353 -119.268023 76 16974ft 247kts
07-Mar-21 17:01 34.352267 -119.181312 75 16963ft 286kts
07-Mar-21 17:02 34.376379 -119.086120 75 16947ft 304kts
07-Mar-21 17:03 34.401608 -118.986584 75 16944ft 312kts
07-Mar-21 17:04 34.427130 -118.885444 75 16944ft 315kts
07-Mar-21 17:05 34.452579 -118.782820 75 16867ft 319kts
07-Mar-21 17:06 34.478814 -118.679296 76 16954ft 324kts
07-Mar-21 17:07 34.505121 -118.573903 76 16953ft 328kts
07-Mar-21 17:08 34.531526 -118.467652 76 16953ft 330kts
07-Mar-21 17:09 34.557926 -118.360941 76 16953ft 330kts
07-Mar-21 17:10 34.584314 -118.253877 76 16949ft 329kts
07-Mar-21 17:11 34.610460 -118.147354 76 16951ft 328kts
07-Mar-21 17:12 34.628843 -118.040182 96 16957ft 320kts
07-Mar-21 17:13 34.620401 -117.937364 101 16952ft 319kts
07-Mar-21 17:14 34.610541 -117.830373 101 16952ft 319kts
07-Mar-21 17:15 34.600951 -117.723402 101 16952ft 319kts
07-Mar-21 17:16 34.591296 -117.616233 101 16953ft 319kts
07-Mar-21 17:17 34.581539 -117.509162 101 16953ft 319kts
07-Mar-21 17:18 34.571705 -117.402269 101 16954ft 319kts
07-Mar-21 17:19 34.561751 -117.295063 101 16950ft 319kts
07-Mar-21 17:20 34.552036 -117.191433 101 16951ft 319kts
07-Mar-21 17:21 34.541935 -117.084693 101 16951ft 319kts
07-Mar-21 17:22 34.531740 -116.978147 101 16951ft 318kts
07-Mar-21 17:23 34.521942 -116.876258 101 16745ft 309kts
07-Mar-21 17:24 34.512453 -116.777755 102 15877ft 285kts
07-Mar-21 17:25 34.492774 -116.689240 135 15069ft 261kts
07-Mar-21 17:26 34.432032 -116.649906 166 14043ft 250kts
07-Mar-21 17:27 34.365372 -116.624278 166 12957ft 253kts
07-Mar-21 17:28 34.298574 -116.598009 165 11875ft 254kts
07-Mar-21 17:29 34.231451 -116.571485 164 10991ft 246kts
07-Mar-21 17:30 34.170664 -116.547100 159 10932ft 222kts
07-Mar-21 17:31 34.119034 -116.510110 153 10997ft 204kts
07-Mar-21 17:32 34.066594 -116.472455 153 11017ft 236kts
07-Mar-21 17:33 34.007964 -116.430530 152 11010ft 252kts
07-Mar-21 17:34 33.946808 -116.386826 153 10996ft 258kts
07-Mar-21 17:35 33.884691 -116.342534 153 11000ft 260kts
07-Mar-21 17:36 33.821892 -116.297857 153 10998ft 262kts
07-Mar-21 17:37 33.761653 -116.255008 152 10303ft 242kts
07-Mar-21 17:38 33.704795 -116.214695 152 9586ft 233kts
07-Mar-21 17:39 33.649486 -116.175534 151 8984ft 225kts
07-Mar-21 17:40 33.608380 -116.122176 125 8242ft 227kts
07-Mar-21 17:41 33.579253 -116.053919 85 6725ft 244kts
07-Mar-21 17:42 33.629339 -116.042775 293 5232ft 239kts
07-Mar-21 17:43 33.621189 -116.118851 256 3996ft 238kts
07-Mar-21 17:44 33.645217 -116.190262 304 3995ft 237kts
07-Mar-21 17:45 33.682718 -116.254405 303 3977ft 228kts
07-Mar-21 17:46 33.718596 -116.315691 303 3569ft 233kts
07-Mar-21 17:47 33.755559 -116.378766 303 2972ft 217kts
07-Mar-21 17:48 33.784131 -116.435953 284 2413ft 185kts
07-Mar-21 17:49 33.800166 -116.481351 324 1318ft 129kts
07-Mar-21 17:50 33.825100 -116.503614 324 431ft 84kts
07-Mar-21 17:51 33.828648 -116.508108 251 431ft 0kts
07-Mar-21 17:52 33.828648 -116.508108 251 431ft 0kts
07-Mar-21 17:53 33.828646 -116.509160 268 431ft 11kts
07-Mar-21 17:54 33.828919 -116.511328 185 431ft 0kts
07-Mar-21 17:55 33.828919 -116.511328 185 431ft 0kts
07-Mar-21 17:56 33.828919 -116.511328 185 431ft 0kts

Navigation Log

Ident Type
Flight plan parsing failed, navigation log unavailable